Terminal Aerodrome Forecast
Issued by NWS King Salmon, AK

Home | Current Version | Previous Version | Text Only | Print | Product List | Glossary On
Versions: 1 2 3 4 5 6 7 8 9 10 11 12 13 14 15 16 17 18 19
000
FTAK31 PANC 251733
TAFAKN
TAF
PAKN 251733Z 2518/2618 VRB06KT P6SM SCT004 OVC008
      TEMPO 2518/2522 BKN004 OVC008
     FM252200 15008KT 6SM BR VCSH SCT003 OVC007
     FM260200 18008G15KT 2SM -SN BR SCT003 OVC007
     FM260500 20018G28KT 3SM -SN BR SCT007 BKN015 OVC025
     FM261300 21028G38KT 2SM -SHSN SCT003 BKN007 OVC015=

USA.gov is the U.S. government's official web portal to all federal, state and local government web resources and services.